createdAt,value
2023-04-28T00:00:23.432Z,72.1346
2023-04-28T00:01:24.512Z,71.9582
2023-04-28T00:02:25.691Z,71.9267
2023-04-28T00:03:26.990Z,71.9027
2023-04-28T00:04:28.459Z,72.3011
2023-04-28T00:05:29.650Z,72.3824
2023-04-28T00:06:30.639Z,72.2242
2023-04-28T00:07:31.746Z,71.8513
2023-04-28T00:08:32.771Z,71.4672
2023-04-28T00:09:33.893Z,71.5158
2023-04-28T00:10:34.934Z,70.9684
2023-04-28T00:11:35.976Z,70.5015
2023-04-28T00:12:37.011Z,70.9007
2023-04-28T00:13:38.072Z,70.0991
2023-04-28T00:14:39.265Z,69.8474
2023-04-28T00:15:40.286Z,69.9924
2023-04-28T00:16:41.558Z,69.9598
2023-04-28T00:17:43.086Z,69.6275
2023-04-28T00:18:44.199Z,69.9032
2023-04-28T00:19:45.251Z,70.0829
2023-04-28T00:20:46.268Z,69.9718
2023-04-28T00:21:47.301Z,70.0569
2023-04-28T00:22:48.346Z,70.4060
2023-04-28T00:23:49.427Z,70.5394
2023-04-28T00:24:50.444Z,70.5652
2023-04-28T00:25:51.471Z,70.1712
2023-04-28T00:26:52.653Z,70.0115
2023-04-28T00:27:53.664Z,70.0180
2023-04-28T00:28:54.711Z,70.4349
2023-04-28T00:29:55.748Z,70.5799
2023-04-28T00:30:56.865Z,70.4816
2023-04-28T00:31:58.315Z,70.5162
2023-04-28T00:32:59.404Z,70.1787
2023-04-28T00:34:00.446Z,70.2175
2023-04-28T00:35:01.534Z,70.1547
2023-04-28T00:36:02.680Z,70.4992
2023-04-28T00:37:03.801Z,70.1969
2023-04-28T00:38:04.865Z,70.4313
2023-04-28T00:39:05.927Z,70.2399
2023-04-28T00:40:06.949Z,70.1620
2023-04-28T00:41:08.042Z,70.2686
2023-04-28T00:42:09.177Z,70.4296
2023-04-28T00:43:10.186Z,70.7160
2023-04-28T00:44:11.292Z,70.6407
2023-04-28T00:45:12.327Z,70.6748
2023-04-28T00:46:13.549Z,70.4648
2023-04-28T00:47:14.823Z,70.8415
2023-04-28T00:48:15.971Z,71.0072
2023-04-28T00:49:16.951Z,71.2803
2023-04-28T00:50:17.982Z,71.6355
2023-04-28T00:51:19.031Z,71.3182
2023-04-28T00:52:20.288Z,70.7139
2023-04-28T00:53:21.317Z,70.8476
2023-04-28T00:54:22.349Z,70.8487
2023-04-28T00:55:23.358Z,71.1405
2023-04-28T00:56:24.433Z,70.8063
2023-04-28T00:57:25.471Z,70.3121
2023-04-28T00:58:26.572Z,70.5450
2023-04-28T00:59:27.597Z,70.3557
2023-04-28T01:00:28.625Z,70.5719
2023-04-28T01:01:29.736Z,70.7266
2023-04-28T01:02:30.844Z,70.7358
2023-04-28T01:03:32.126Z,70.9401
2023-04-28T01:04:33.347Z,71.1885
2023-04-28T01:05:34.459Z,70.9916
2023-04-28T01:06:35.559Z,70.8343
2023-04-28T01:07:36.631Z,70.8101
2023-04-28T01:08:37.635Z,70.5306
2023-04-28T01:09:38.692Z,70.5391
2023-04-28T01:10:39.765Z,70.5916
2023-04-28T01:11:40.847Z,70.3684
2023-04-28T01:12:41.925Z,69.7817
2023-04-28T01:13:43.066Z,69.6643
2023-04-28T01:14:44.061Z,70.1701
2023-04-28T01:15:45.095Z,70.5225
2023-04-28T01:16:46.148Z,70.6344
2023-04-28T01:17:47.188Z,70.3159
2023-04-28T01:18:48.242Z,70.2778
2023-04-28T01:19:49.286Z,70.4954
2023-04-28T01:20:50.315Z,69.9112
2023-04-28T01:21:51.428Z,69.8475
2023-04-28T01:22:52.463Z,69.6570
2023-04-28T01:23:53.511Z,69.8193
2023-04-28T01:24:54.605Z,70.8103
2023-04-28T01:25:55.702Z,72.0372
2023-04-28T01:26:56.855Z,72.9636
2023-04-28T01:27:57.922Z,73.8345
2023-04-28T01:28:59.079Z,73.6981
2023-04-28T01:30:00.228Z,73.9543
2023-04-28T01:31:01.370Z,74.7195
2023-04-28T01:32:02.606Z,75.8937
2023-04-28T01:33:03.873Z,77.3435
2023-04-28T01:34:05.040Z,77.5293
2023-04-28T01:35:06.160Z,76.3306
2023-04-28T01:36:07.285Z,78.1532
2023-04-28T01:37:08.441Z,78.7913
2023-04-28T01:38:09.561Z,78.6802
2023-04-28T01:39:10.743Z,76.3264
2023-04-28T01:40:11.862Z,78.0468
2023-04-28T01:41:13.037Z,77.2933
2023-04-28T01:42:14.156Z,77.4809
2023-04-28T01:43:15.455Z,75.8117
2023-04-28T01:44:16.775Z,76.4262
2023-04-28T01:45:18.368Z,77.7450
2023-04-28T01:46:19.685Z,77.5717
2023-04-28T01:47:20.826Z,79.5505
2023-04-28T01:48:21.972Z,79.4120
2023-04-28T01:49:23.083Z,78.9832
2023-04-28T01:50:24.259Z,81.0363
2023-04-28T01:51:25.416Z,81.7347
2023-04-28T01:52:26.631Z,80.7810
2023-04-28T01:53:27.765Z,81.8404
2023-04-28T01:54:28.958Z,82.5015
2023-04-28T01:55:30.095Z,82.8831
2023-04-28T01:56:31.598Z,82.7747
2023-04-28T01:57:32.815Z,83.3152
2023-04-28T01:58:33.914Z,83.9655
2023-04-28T01:59:35.105Z,84.5486
2023-04-28T02:00:36.361Z,83.0671
2023-04-28T02:01:37.868Z,81.2335
2023-04-28T02:02:39.084Z,81.6974
2023-04-28T02:03:40.478Z,82.0383
2023-04-28T02:04:41.810Z,79.8409
2023-04-28T02:05:42.912Z,80.6611
2023-04-28T02:06:44.034Z,80.0900
2023-04-28T02:07:45.247Z,81.0093
2023-04-28T02:08:46.407Z,81.4867
2023-04-28T02:09:47.538Z,81.1186
2023-04-28T02:10:48.676Z,81.2741
2023-04-28T02:11:49.844Z,81.3805
2023-04-28T02:12:51.045Z,81.6946
2023-04-28T02:13:52.143Z,81.7685
2023-04-28T02:14:53.302Z,83.0021
2023-04-28T02:15:54.493Z,82.7900
2023-04-28T02:16:55.726Z,82.0668
2023-04-28T02:17:56.930Z,81.7897
2023-04-28T02:18:58.105Z,80.8217
2023-04-28T02:19:59.304Z,81.5264
2023-04-28T02:21:00.477Z,80.1777
2023-04-28T02:22:01.682Z,78.8348
2023-04-28T02:23:02.863Z,78.1341
2023-04-28T02:24:04.057Z,78.2829
2023-04-28T02:25:05.167Z,77.0599
2023-04-28T02:26:06.272Z,77.4012
2023-04-28T02:27:07.392Z,77.1536
2023-04-28T02:28:08.631Z,77.0538
2023-04-28T02:29:09.811Z,78.4462
2023-04-28T02:30:10.927Z,79.1076
2023-04-28T02:31:12.086Z,79.5005
2023-04-28T02:32:13.275Z,79.3355
2023-04-28T02:33:14.433Z,79.8946
2023-04-28T02:34:15.829Z,80.0269
2023-04-28T02:35:17.429Z,80.7152
2023-04-28T02:36:18.635Z,81.0836
2023-04-28T02:37:19.777Z,81.5679
2023-04-28T02:38:20.959Z,80.5778
2023-04-28T02:39:22.090Z,80.5277
2023-04-28T02:40:23.185Z,82.2611
2023-04-28T02:41:24.336Z,81.6901
2023-04-28T02:42:25.541Z,80.3023
2023-04-28T02:43:26.705Z,80.7886
2023-04-28T02:44:27.838Z,80.0567
2023-04-28T02:45:28.987Z,79.4057
2023-04-28T02:46:30.194Z,79.8439
2023-04-28T02:47:31.457Z,79.6658
2023-04-28T02:48:32.706Z,79.7734
2023-04-28T02:49:33.853Z,79.8784
2023-04-28T02:50:35.029Z,79.6373
2023-04-28T02:51:36.169Z,79.8050
2023-04-28T02:52:37.325Z,80.8684
2023-04-28T02:53:38.441Z,81.8298
2023-04-28T02:54:39.540Z,82.3757
2023-04-28T02:55:40.660Z,82.4810
2023-04-28T02:56:41.767Z,82.5643
2023-04-28T02:57:42.939Z,83.5764
2023-04-28T02:58:44.120Z,83.9995
2023-04-28T02:59:45.312Z,85.3090
2023-04-28T03:00:46.511Z,85.4951
2023-04-28T03:01:47.903Z,85.7147
2023-04-28T03:02:49.368Z,85.8271
2023-04-28T03:03:50.740Z,85.7896
2023-04-28T03:04:52.022Z,86.2457
2023-04-28T03:05:53.159Z,85.4216
2023-04-28T03:06:54.285Z,85.2103
2023-04-28T03:07:55.507Z,86.4333
2023-04-28T03:08:56.649Z,86.5023
2023-04-28T03:09:57.797Z,87.5172
2023-04-28T03:10:58.944Z,88.0491
2023-04-28T03:12:00.130Z,88.3258
2023-04-28T03:13:01.416Z,87.1692
2023-04-28T03:14:02.593Z,87.0723
2023-04-28T03:15:03.752Z,87.1791
2023-04-28T03:16:04.994Z,87.4680
2023-04-28T03:17:06.168Z,87.7492
2023-04-28T03:18:07.404Z,88.7223
2023-04-28T03:19:08.887Z,89.4034
2023-04-28T03:20:10.045Z,90.4715
2023-04-28T03:21:11.264Z,90.2422
2023-04-28T03:22:12.460Z,90.5382
2023-04-28T03:23:13.698Z,90.6469
2023-04-28T03:24:15.068Z,90.6008
2023-04-28T03:25:16.740Z,90.8185
2023-04-28T03:26:17.879Z,91.4139
2023-04-28T03:27:19.082Z,91.3384
2023-04-28T03:28:20.235Z,91.3452
2023-04-28T03:29:21.432Z,91.2437
2023-04-28T03:30:22.701Z,91.4694
2023-04-28T03:31:23.889Z,91.5375
2023-04-28T03:32:25.053Z,91.6227
2023-04-28T03:33:26.197Z,91.3895
2023-04-28T03:34:27.371Z,91.4961
2023-04-28T03:35:28.527Z,91.8443
2023-04-28T03:36:29.699Z,92.1714
2023-04-28T03:37:30.968Z,92.4244
2023-04-28T03:38:32.141Z,92.1357
2023-04-28T03:39:33.317Z,91.8892
2023-04-28T03:40:34.450Z,92.6239
2023-04-28T03:41:35.666Z,91.8673
2023-04-28T03:42:36.801Z,91.9803
2023-04-28T03:43:37.989Z,92.4460
2023-04-28T03:44:39.168Z,91.8202
2023-04-28T03:45:40.326Z,92.0801
2023-04-28T03:46:41.506Z,91.9796
2023-04-28T03:47:42.784Z,91.7233
2023-04-28T03:48:43.968Z,91.9160
2023-04-28T03:49:45.192Z,91.9145
2023-04-28T03:50:46.406Z,92.0136
2023-04-28T03:51:47.616Z,92.5532
2023-04-28T03:52:48.827Z,92.6642
2023-04-28T03:53:49.974Z,92.9483
2023-04-28T03:54:51.152Z,92.5814
2023-04-28T03:55:52.279Z,92.6345
2023-04-28T03:56:53.560Z,92.3998
2023-04-28T03:57:54.816Z,93.2280
2023-04-28T03:58:55.919Z,93.2570
2023-04-28T03:59:57.037Z,92.7711
2023-04-28T04:00:58.175Z,93.0607
2023-04-28T04:01:59.307Z,93.1495
2023-04-28T04:03:00.632Z,92.9229
2023-04-28T04:04:02.210Z,93.0348
2023-04-28T04:05:04.022Z,93.2446
2023-04-28T04:06:05.545Z,93.1366
2023-04-28T04:07:06.713Z,93.0344
2023-04-28T04:08:07.902Z,93.3394
2023-04-28T04:09:09.057Z,93.3645
2023-04-28T04:10:10.478Z,93.7367
2023-04-28T04:11:11.695Z,93.9162
2023-04-28T04:12:12.869Z,93.7365
2023-04-28T04:13:14.128Z,93.9946
2023-04-28T04:14:15.537Z,94.2743
2023-04-28T04:15:16.912Z,94.2661
2023-04-28T04:16:18.085Z,93.8494
2023-04-28T04:17:19.345Z,94.0290
2023-04-28T04:18:20.522Z,93.8460
2023-04-28T04:19:21.733Z,93.8383
2023-04-28T04:20:22.878Z,93.6783
2023-04-28T04:21:24.032Z,93.7803
2023-04-28T04:22:25.176Z,94.0642
2023-04-28T04:23:26.461Z,94.2977
2023-04-28T04:24:27.604Z,94.3404
2023-04-28T04:25:28.834Z,94.3623
2023-04-28T04:26:30.045Z,94.5712
2023-04-28T04:27:31.274Z,94.6682
2023-04-28T04:28:32.442Z,94.8334
2023-04-28T04:29:33.613Z,94.7575
2023-04-28T04:30:34.781Z,94.7483
2023-04-28T04:31:35.908Z,94.6091
2023-04-28T04:32:37.072Z,94.7247
2023-04-28T04:33:38.346Z,94.5575
2023-04-28T04:34:39.506Z,94.4058
2023-04-28T04:35:40.659Z,94.6016
2023-04-28T04:36:41.883Z,94.9363
2023-04-28T04:37:43.088Z,94.9237
2023-04-28T04:38:44.335Z,94.7052
2023-04-28T04:39:45.492Z,94.4384
2023-04-28T04:40:46.639Z,94.6894
2023-04-28T04:41:47.799Z,94.8383
2023-04-28T04:42:49.051Z,95.0111
2023-04-28T04:43:50.194Z,94.9470
2023-04-28T04:44:51.361Z,94.6829
2023-04-28T04:45:52.489Z,94.6570
2023-04-28T04:46:53.950Z,94.1176
2023-04-28T04:47:55.328Z,94.2851
2023-04-28T04:48:56.535Z,94.5321
2023-04-28T04:49:57.745Z,94.8646
2023-04-28T04:50:59.020Z,94.3863
2023-04-28T04:52:00.956Z,94.5477
2023-04-28T04:53:02.196Z,94.3739
2023-04-28T04:54:03.375Z,94.4627
2023-04-28T04:55:04.572Z,94.4982
2023-04-28T04:56:05.840Z,94.4292
2023-04-28T04:57:07.040Z,94.7606
2023-04-28T04:58:08.212Z,94.5065
2023-04-28T04:59:09.394Z,94.1199
2023-04-28T05:00:10.541Z,94.1939
2023-04-28T05:01:11.702Z,94.0785
2023-04-28T05:02:12.984Z,94.3724
2023-04-28T05:03:14.248Z,94.2686
2023-04-28T05:04:15.820Z,94.2162
2023-04-28T05:05:21.464Z,94.1459
2023-04-28T05:06:17.970Z,94.2635
2023-04-28T05:07:19.217Z,94.0184
2023-04-28T05:08:20.366Z,94.2492
2023-04-28T05:09:21.554Z,94.1140
2023-04-28T05:10:22.963Z,94.0631
2023-04-28T05:11:24.081Z,93.7604
2023-04-28T05:12:25.280Z,93.9856
2023-04-28T05:13:26.495Z,93.8696
2023-04-28T05:14:27.657Z,93.7232
2023-04-28T05:15:28.795Z,93.8857
2023-04-28T05:16:29.970Z,94.2272
2023-04-28T05:17:31.133Z,94.3344
2023-04-28T05:18:32.344Z,94.5179
2023-04-28T05:19:33.546Z,94.5062
2023-04-28T05:20:34.639Z,94.4203
2023-04-28T05:21:35.776Z,94.3398
2023-04-28T05:22:36.958Z,94.4430
2023-04-28T05:23:38.146Z,94.6535
2023-04-28T05:24:39.302Z,94.6509
2023-04-28T05:25:40.534Z,94.5828
2023-04-28T05:26:41.759Z,94.8202
2023-04-28T05:27:42.909Z,94.8514
2023-04-28T05:28:44.084Z,94.8965
2023-04-28T05:29:45.306Z,94.9020
2023-04-28T05:30:46.459Z,94.6242
2023-04-28T05:31:47.678Z,95.0177
2023-04-28T05:32:48.811Z,95.3457
2023-04-28T05:33:49.964Z,94.9792
2023-04-28T05:34:51.200Z,95.1521
2023-04-28T05:35:52.378Z,95.1379
2023-04-28T05:36:53.622Z,95.3088
2023-04-28T05:37:54.785Z,95.3866
2023-04-28T05:38:55.929Z,95.4443
2023-04-28T05:39:57.088Z,95.1800
2023-04-28T05:40:58.313Z,95.4441
2023-04-28T05:41:59.444Z,95.6852
2023-04-28T05:43:00.636Z,95.6908
2023-04-28T05:44:01.813Z,95.8254
2023-04-28T05:45:02.980Z,95.8328
2023-04-28T05:46:06.245Z,95.9520
2023-04-28T05:47:05.764Z,96.1225
2023-04-28T05:48:06.982Z,96.2972
2023-04-28T05:49:08.222Z,96.5139
2023-04-28T05:50:09.364Z,96.7055
2023-04-28T05:51:10.535Z,96.8253
2023-04-28T05:52:11.677Z,97.0187
2023-04-28T05:53:12.889Z,97.1850
2023-04-28T05:54:14.147Z,97.3540
2023-04-28T05:55:15.402Z,97.4447
2023-04-28T05:56:16.557Z,97.4476
2023-04-28T05:57:17.728Z,97.4175
2023-04-28T05:58:18.916Z,97.3907
2023-04-28T05:59:20.125Z,97.4439
2023-04-28T06:00:21.352Z,97.4432
2023-04-28T06:01:22.489Z,97.4261
2023-04-28T06:02:24.224Z,97.4392
2023-04-28T06:03:24.219Z,97.3959
2023-04-28T06:04:26.627Z,97.5966
2023-04-28T06:05:28.268Z,97.6409
2023-04-28T06:06:29.630Z,97.5462
2023-04-28T06:07:30.927Z,97.4945
2023-04-28T06:08:32.124Z,97.4137
2023-04-28T06:09:33.286Z,97.4044
2023-04-28T06:10:34.420Z,97.4626
2023-04-28T06:11:35.544Z,97.4907
2023-04-28T06:12:36.701Z,97.5151
2023-04-28T06:13:37.845Z,97.4146
2023-04-28T06:14:39.048Z,97.4380
2023-04-28T06:15:40.263Z,97.5466
2023-04-28T06:16:41.380Z,97.5594
2023-04-28T06:17:42.523Z,97.4521
2023-04-28T06:18:43.733Z,97.5214
2023-04-28T06:19:44.929Z,97.5681
2023-04-28T06:20:46.088Z,97.6433
2023-04-28T06:21:47.305Z,97.7107
2023-04-28T06:22:48.581Z,97.5912
2023-04-28T06:23:49.770Z,97.5331
2023-04-28T06:24:50.983Z,97.5534
2023-04-28T06:25:52.176Z,97.5884
2023-04-28T06:26:53.378Z,97.5948
2023-04-28T06:27:54.593Z,97.5020
2023-04-28T06:28:55.835Z,97.6140
2023-04-28T06:29:57.070Z,97.6404
2023-04-28T06:30:58.315Z,97.4741
2023-04-28T06:31:59.536Z,97.5317
2023-04-28T06:33:00.767Z,97.5599
2023-04-28T06:34:02.040Z,97.5492
2023-04-28T06:35:03.248Z,97.5219
2023-04-28T06:36:04.503Z,97.4237
2023-04-28T06:37:05.687Z,97.3623
2023-04-28T06:38:06.884Z,97.3343
2023-04-28T06:39:08.049Z,97.3143
2023-04-28T06:40:09.247Z,97.0968
2023-04-28T06:41:10.526Z,96.7740
2023-04-28T06:42:11.731Z,96.7835
2023-04-28T06:43:12.938Z,96.7551
2023-04-28T06:44:14.218Z,96.6613
2023-04-28T06:45:15.464Z,96.6573
2023-04-28T06:46:16.728Z,96.7714
2023-04-28T06:47:17.940Z,96.8036
2023-04-28T06:48:19.144Z,96.7768
2023-04-28T06:49:20.281Z,96.4905
2023-04-28T06:50:21.780Z,96.2090
2023-04-28T06:51:23.187Z,96.3098
2023-04-28T06:52:32.879Z,96.1986
2023-04-28T06:53:26.754Z,96.0777
2023-04-28T06:54:27.991Z,96.0753
2023-04-28T06:55:29.168Z,95.8615
2023-04-28T06:56:30.359Z,95.6642
2023-04-28T06:57:31.587Z,95.6777
2023-04-28T06:58:32.817Z,95.9300
2023-04-28T06:59:34.037Z,95.7110
2023-04-28T07:00:35.269Z,95.8393
2023-04-28T07:01:36.429Z,96.0017
2023-04-28T07:02:37.832Z,95.8955
2023-04-28T07:03:39.672Z,95.4909
2023-04-28T07:04:40.932Z,95.3528
2023-04-28T07:05:42.145Z,95.3737
2023-04-28T07:06:43.373Z,95.4574
2023-04-28T07:07:44.581Z,95.2862
2023-04-28T07:08:45.822Z,95.2990
2023-04-28T07:09:47.049Z,95.1823
2023-04-28T07:10:48.238Z,95.1685
2023-04-28T07:11:49.399Z,95.1518
2023-04-28T07:12:50.593Z,95.1370
2023-04-28T07:13:51.797Z,95.1958
2023-04-28T07:14:53.028Z,95.0433
2023-04-28T07:15:54.200Z,95.2043
2023-04-28T07:16:55.569Z,95.2551
2023-04-28T07:17:56.728Z,95.3124
2023-04-28T07:18:57.936Z,95.2295
2023-04-28T07:19:59.138Z,94.6952
2023-04-28T07:21:00.320Z,94.6967
2023-04-28T07:22:01.529Z,94.8135
2023-04-28T07:23:02.737Z,94.8073
2023-04-28T07:24:04.008Z,94.8827
2023-04-28T07:25:05.188Z,94.8087
2023-04-28T07:26:06.607Z,94.8695
2023-04-28T07:27:07.770Z,94.9482
2023-04-28T07:28:08.920Z,94.8567
2023-04-28T07:29:10.152Z,94.5241
2023-04-28T07:30:25.674Z,94.0594
2023-04-28T07:31:13.002Z,94.2520
2023-04-28T07:32:14.303Z,94.4474
2023-04-28T07:33:15.603Z,94.6040
2023-04-28T07:34:17.004Z,94.4200
2023-04-28T07:35:18.457Z,94.5518
2023-04-28T07:36:19.657Z,94.7677
2023-04-28T07:37:20.856Z,94.9016
2023-04-28T07:38:22.083Z,94.4590
2023-04-28T07:39:23.298Z,94.5567
2023-04-28T07:40:24.507Z,94.3412
2023-04-28T07:41:25.693Z,94.1160
2023-04-28T07:42:26.921Z,94.5843
2023-04-28T07:43:28.097Z,94.5168
2023-04-28T07:44:29.257Z,94.8193
2023-04-28T07:45:30.430Z,94.7813
2023-04-28T07:46:31.763Z,95.0090
2023-04-28T07:47:33.047Z,95.0355
2023-04-28T07:48:34.265Z,94.7960
2023-04-28T07:49:35.508Z,94.9176
2023-04-28T07:50:36.742Z,94.8001
2023-04-28T07:51:37.979Z,94.7734
2023-04-28T07:52:39.198Z,94.7831
2023-04-28T07:53:40.428Z,94.7444
2023-04-28T07:54:41.629Z,94.9803
2023-04-28T07:55:42.884Z,95.2529
2023-04-28T07:56:44.088Z,95.2424
2023-04-28T07:57:45.342Z,95.4676
2023-04-28T07:58:46.546Z,95.5987
2023-04-28T07:59:47.740Z,95.6780
2023-04-28T08:00:49.014Z,95.6746
2023-04-28T08:01:50.239Z,95.6578
2023-04-28T08:02:51.724Z,95.5770
2023-04-28T08:03:54.231Z,95.5342
2023-04-28T08:04:55.861Z,95.4220
2023-04-28T08:05:57.307Z,95.5007
2023-04-28T08:06:59.099Z,95.5630
2023-04-28T08:08:00.551Z,95.6158
2023-04-28T08:09:01.618Z,96.0273
2023-04-28T08:10:02.650Z,96.0261
2023-04-28T08:11:03.525Z,96.2422
2023-04-28T08:12:04.351Z,96.3368
2023-04-28T08:13:05.424Z,96.2937
2023-04-28T08:14:06.280Z,96.1407
2023-04-28T08:15:07.164Z,96.0469
2023-04-28T08:16:08.067Z,95.9136
2023-04-28T08:17:08.926Z,96.2500
2023-04-28T08:18:09.816Z,96.0630
2023-04-28T08:19:10.655Z,96.0047
2023-04-28T08:20:11.520Z,96.2042
2023-04-28T08:21:12.372Z,96.4317
2023-04-28T08:22:13.203Z,96.3568
2023-04-28T08:23:14.076Z,96.3559
2023-04-28T08:24:15.085Z,96.5034
2023-04-28T08:25:16.156Z,96.5078
2023-04-28T08:26:17.022Z,96.3507
2023-04-28T08:27:17.924Z,96.4877
2023-04-28T08:28:18.787Z,96.5132
2023-04-28T08:29:19.637Z,96.3890
2023-04-28T08:30:20.615Z,96.1870
2023-04-28T08:31:21.458Z,95.9921
2023-04-28T08:32:22.298Z,95.9516
2023-04-28T08:33:23.163Z,95.9340
2023-04-28T08:34:24.022Z,96.0034
2023-04-28T08:35:24.912Z,96.1318
2023-04-28T08:36:25.789Z,96.1115
2023-04-28T08:37:26.638Z,96.2522
2023-04-28T08:38:27.439Z,96.3134
2023-04-28T08:39:28.312Z,96.2862
2023-04-28T08:40:29.256Z,96.3887
2023-04-28T08:41:30.102Z,96.4091
2023-04-28T08:42:31.045Z,96.2953
2023-04-28T08:43:31.987Z,96.1147
2023-04-28T08:44:32.891Z,96.1289
2023-04-28T08:45:33.741Z,96.2122
2023-04-28T08:46:34.577Z,96.1637
2023-04-28T08:47:35.450Z,95.9180
2023-04-28T08:48:36.302Z,95.2103
2023-04-28T08:49:37.163Z,94.9369
2023-04-28T08:50:38.030Z,94.9236
2023-04-28T08:51:40.822Z,94.8779
2023-04-28T08:52:40.177Z,94.8018
2023-04-28T08:54:06.181Z,94.9445
2023-04-28T08:54:42.388Z,95.2367
2023-04-28T08:55:43.304Z,95.3312
2023-04-28T08:56:44.100Z,95.2694
2023-04-28T08:57:44.952Z,95.2812
2023-04-28T08:58:45.879Z,95.2891
2023-04-28T08:59:46.704Z,95.1908
2023-04-28T09:00:47.542Z,95.3462
2023-04-28T09:01:48.398Z,95.3803
2023-04-28T09:02:49.395Z,95.5469
2023-04-28T09:03:50.596Z,95.7769
2023-04-28T09:04:51.715Z,96.0176
2023-04-28T09:05:52.801Z,96.0526
2023-04-28T09:06:53.677Z,96.1979
2023-04-28T09:07:54.463Z,96.4200
2023-04-28T09:08:55.318Z,96.4980
2023-04-28T09:09:56.192Z,96.5329
2023-04-28T09:10:57.071Z,96.3342
2023-04-28T09:11:57.911Z,96.4912
2023-04-28T09:12:58.778Z,96.7446
2023-04-28T09:13:59.583Z,96.6774
2023-04-28T09:15:00.522Z,96.2096
2023-04-28T09:16:01.437Z,96.2908
2023-04-28T09:17:02.282Z,96.2110
2023-04-28T09:18:03.307Z,96.0967
2023-04-28T09:19:04.286Z,96.3816
2023-04-28T09:20:05.175Z,96.3466
2023-04-28T09:21:05.965Z,96.4459
2023-04-28T09:22:18.175Z,96.5919
2023-04-28T09:23:08.033Z,96.4923
2023-04-28T09:24:08.917Z,96.4995
2023-04-28T09:25:09.745Z,96.4627
2023-04-28T09:26:10.573Z,96.6375
2023-04-28T09:27:11.421Z,96.6778
2023-04-28T09:28:12.306Z,96.7175
2023-04-28T09:29:13.186Z,96.5182
2023-04-28T09:30:14.013Z,96.4809
2023-04-28T09:31:14.873Z,96.4956
2023-04-28T09:32:15.831Z,96.5039
2023-04-28T09:33:16.800Z,96.3783
2023-04-28T09:34:17.951Z,96.5914
2023-04-28T09:35:19.048Z,96.7391
2023-04-28T09:36:19.883Z,96.7187
2023-04-28T09:37:20.813Z,96.5705
2023-04-28T09:38:21.645Z,96.6011
2023-04-28T09:39:22.584Z,96.8501
2023-04-28T09:40:23.563Z,96.8327
2023-04-28T09:41:24.417Z,96.8195
2023-04-28T09:42:25.277Z,96.8442
2023-04-28T09:43:26.162Z,96.7814
2023-04-28T09:44:26.941Z,97.0425
2023-04-28T09:45:29.873Z,96.9501
2023-04-28T09:46:28.721Z,96.8728
2023-04-28T09:47:29.573Z,96.7602
2023-04-28T09:48:30.446Z,96.7859
2023-04-28T09:49:31.330Z,96.8982
2023-04-28T09:50:32.160Z,97.1577
2023-04-28T09:51:33.053Z,97.1280
2023-04-28T09:52:33.850Z,97.3155
2023-04-28T09:53:34.694Z,97.2886
2023-04-28T09:54:35.496Z,97.4971
2023-04-28T09:55:36.357Z,97.6401
2023-04-28T09:56:37.223Z,97.7472
2023-04-28T09:57:38.048Z,97.7464
2023-04-28T09:58:38.944Z,97.7387
2023-04-28T09:59:39.814Z,97.7123
2023-04-28T10:00:40.670Z,97.7555
2023-04-28T10:01:42.662Z,97.6729
2023-04-28T10:02:44.194Z,97.7533
2023-04-28T10:03:45.388Z,97.8745
2023-04-28T10:04:46.390Z,97.9722
2023-04-28T10:05:47.674Z,97.9697
2023-04-28T10:06:48.507Z,97.9511
2023-04-28T10:07:49.340Z,98.0194
2023-04-28T10:08:50.190Z,98.0566
2023-04-28T10:09:51.055Z,98.1093
2023-04-28T10:10:51.837Z,98.0624
2023-04-28T10:11:52.684Z,98.0056
2023-04-28T10:12:53.523Z,98.0287
2023-04-28T10:13:54.404Z,97.9724
2023-04-28T10:14:55.289Z,97.7567
2023-04-28T10:15:56.219Z,97.6455
2023-04-28T10:16:57.052Z,97.5409
2023-04-28T10:17:57.968Z,97.4567
2023-04-28T10:18:58.775Z,97.4258
2023-04-28T10:19:59.649Z,97.2854
2023-04-28T10:21:00.480Z,97.0525
2023-04-28T10:22:01.333Z,97.0529
2023-04-28T10:23:02.171Z,97.0596
2023-04-28T10:24:02.999Z,96.9708
2023-04-28T10:25:03.880Z,96.8994
2023-04-28T10:26:04.724Z,96.6201
2023-04-28T10:27:05.576Z,96.4684
2023-04-28T10:28:06.442Z,96.5119
2023-04-28T10:29:07.263Z,96.7826
2023-04-28T10:30:15.854Z,96.8600
2023-04-28T10:31:09.370Z,97.1098
2023-04-28T10:32:10.168Z,97.1563
2023-04-28T10:33:11.023Z,97.1808
2023-04-28T10:34:11.853Z,97.0354
2023-04-28T10:35:12.676Z,96.9574
2023-04-28T10:36:13.644Z,96.9291
2023-04-28T10:37:15.164Z,96.8763
2023-04-28T10:38:15.971Z,96.6916
2023-04-28T10:39:16.810Z,96.7416
2023-04-28T10:40:17.681Z,96.7853
2023-04-28T10:41:18.536Z,96.7860
2023-04-28T10:42:19.407Z,96.8403
2023-04-28T10:43:20.351Z,96.7407
2023-04-28T10:44:21.194Z,96.7784
2023-04-28T10:45:22.011Z,96.7349
2023-04-28T10:46:22.905Z,96.4932
2023-04-28T10:47:23.735Z,96.1754
2023-04-28T10:48:24.546Z,96.2090
2023-04-28T10:49:25.343Z,96.4767
2023-04-28T10:50:38.443Z,96.3401
2023-04-28T10:51:27.473Z,96.4020
2023-04-28T10:52:28.326Z,96.3450
2023-04-28T10:53:29.408Z,96.2088
2023-04-28T10:54:30.359Z,95.7977
2023-04-28T10:55:31.164Z,95.3382
2023-04-28T10:56:31.961Z,95.3817
2023-04-28T10:57:32.763Z,95.4896
2023-04-28T10:58:33.555Z,95.4494
2023-04-28T10:59:34.346Z,95.5457
2023-04-28T11:00:35.150Z,95.7520
2023-04-28T11:01:36.064Z,95.6886
2023-04-28T11:02:37.078Z,95.9014
2023-04-28T11:03:38.414Z,95.8461
2023-04-28T11:04:39.508Z,95.4972
2023-04-28T11:05:40.456Z,95.3968
2023-04-28T11:06:41.345Z,95.2106
2023-04-28T11:07:42.137Z,95.2333
2023-04-28T11:08:42.940Z,95.0699
2023-04-28T11:09:43.833Z,94.8460
2023-04-28T11:10:44.688Z,94.7900
2023-04-28T11:11:45.582Z,94.6819
2023-04-28T11:12:46.455Z,95.1084
2023-04-28T11:13:47.372Z,94.8795
2023-04-28T11:14:48.293Z,94.6163
2023-04-28T11:15:49.297Z,94.9398
2023-04-28T11:16:50.291Z,95.0948
2023-04-28T11:17:51.219Z,95.0503
2023-04-28T11:18:54.925Z,95.0788
2023-04-28T11:19:53.880Z,94.8232
2023-04-28T11:20:54.770Z,94.5180
2023-04-28T11:21:55.667Z,93.8884
2023-04-28T11:22:56.546Z,93.6891
2023-04-28T11:23:57.445Z,94.1400
2023-04-28T11:24:58.412Z,94.2301
2023-04-28T11:25:59.344Z,93.9291
2023-04-28T11:27:00.136Z,93.8066
2023-04-28T11:28:01.006Z,93.9297
2023-04-28T11:29:01.863Z,93.8046
2023-04-28T11:30:02.687Z,93.9134
2023-04-28T11:31:03.503Z,93.6739
2023-04-28T11:32:04.442Z,93.8164
2023-04-28T11:33:05.704Z,93.8514
2023-04-28T11:34:06.796Z,94.1469
2023-04-28T11:35:07.825Z,94.1145
2023-04-28T11:36:08.693Z,94.3612
2023-04-28T11:37:09.545Z,94.6817
2023-04-28T11:38:10.380Z,94.5571
2023-04-28T11:39:11.261Z,94.6973
2023-04-28T11:40:12.117Z,94.6818
2023-04-28T11:41:13.061Z,94.5920
2023-04-28T11:42:13.970Z,94.3409
2023-04-28T11:43:14.859Z,94.2143
2023-04-28T11:44:15.810Z,93.9540
2023-04-28T11:45:16.652Z,93.3953
2023-04-28T11:46:17.599Z,93.0010
2023-04-28T11:47:18.499Z,92.8226
2023-04-28T11:48:19.366Z,92.7621
2023-04-28T11:49:20.199Z,92.9555
2023-04-28T11:50:21.019Z,92.7614
2023-04-28T11:51:21.889Z,92.7269
2023-04-28T11:52:22.715Z,92.3761
2023-04-28T11:53:23.854Z,92.2439
2023-04-28T11:54:24.708Z,91.9853
2023-04-28T11:55:25.555Z,91.9509
2023-04-28T11:56:26.409Z,92.4831
2023-04-28T11:57:27.270Z,92.0508
2023-04-28T11:58:28.081Z,92.0328
2023-04-28T11:59:28.887Z,91.4491
2023-04-28T12:00:29.697Z,92.4009
2023-04-28T12:01:30.520Z,93.0758
2023-04-28T12:02:31.578Z,92.6243
2023-04-28T12:03:32.694Z,92.7536
2023-04-28T12:04:33.910Z,92.4335
2023-04-28T12:05:35.328Z,92.3162
2023-04-28T12:06:35.033Z,92.4291
2023-04-28T12:07:35.891Z,92.8458
2023-04-28T12:08:36.734Z,93.3039
2023-04-28T12:09:37.582Z,93.4081
2023-04-28T12:10:38.359Z,93.1965
2023-04-28T12:11:39.143Z,93.4451
2023-04-28T12:12:50.020Z,93.5849
2023-04-28T12:13:41.264Z,93.7086
2023-04-28T12:14:42.211Z,94.0168
2023-04-28T12:15:43.401Z,94.0223
2023-04-28T12:16:44.309Z,93.7890
2023-04-28T12:17:45.218Z,93.9402
2023-04-28T12:18:46.069Z,93.9049